createdAt,value
2017-04-26T00:00:27.353Z,21.32
2017-04-26T00:01:36.855Z,21.37
2017-04-26T00:02:47.269Z,21.35
2017-04-26T00:03:57.345Z,21.38
2017-04-26T00:05:07.389Z,21.37
2017-04-26T00:06:17.535Z,21.37
2017-04-26T00:07:26.685Z,21.34
2017-04-26T00:08:36.965Z,21.44
2017-04-26T00:09:46.463Z,21.34
2017-04-26T00:10:56.307Z,21.29
2017-04-26T00:12:06.528Z,21.4
2017-04-26T00:13:16.561Z,21.38
2017-04-26T00:14:27.008Z,21.38
2017-04-26T00:15:36.427Z,21.35
2017-04-26T00:16:46.199Z,21.35
2017-04-26T00:17:56.654Z,21.38
2017-04-26T00:19:05.807Z,21.4
2017-04-26T00:20:15.491Z,21.34
2017-04-26T00:21:25.840Z,21.35
2017-04-26T00:22:35.569Z,21.38
2017-04-26T00:23:45.765Z,21.4
2017-04-26T00:24:55.731Z,21.38
2017-04-26T00:26:04.901Z,21.29
2017-04-26T00:27:14.358Z,21.34
2017-04-26T00:28:24.094Z,21.32
2017-04-26T00:29:34.287Z,21.37
2017-04-26T00:30:44.021Z,21.32
2017-04-26T00:31:53.993Z,21.31
2017-04-26T00:33:04.003Z,21.28
2017-04-26T00:34:13.835Z,21.37
2017-04-26T00:35:23.728Z,21.35
2017-04-26T00:36:33.196Z,21.35
2017-04-26T00:37:43.500Z,21.35
2017-04-26T00:38:53.599Z,21.31
2017-04-26T00:40:03.329Z,21.37
2017-04-26T00:41:12.858Z,21.29
2017-04-26T00:42:22.337Z,21.31
2017-04-26T00:43:31.430Z,21.29
2017-04-26T00:44:41.802Z,21.29
2017-04-26T00:45:51.295Z,21.27
2017-04-26T00:47:01.726Z,21.28
2017-04-26T00:48:11.776Z,21.31
2017-04-26T00:49:21.521Z,21.25
2017-04-26T00:50:31.874Z,21.29
2017-04-26T00:51:41.593Z,21.29
2017-04-26T00:52:52.060Z,21.34
2017-04-26T00:54:01.784Z,21.31
2017-04-26T00:55:11.858Z,21.31
2017-04-26T00:56:22.249Z,21.29
2017-04-26T00:57:32.249Z,21.32
2017-04-26T00:58:42.429Z,21.34
2017-04-26T00:59:52.710Z,21.35
2017-04-26T01:01:02.459Z,21.32
2017-04-26T01:02:12.190Z,21.32
2017-04-26T01:03:21.901Z,21.34
2017-04-26T01:04:32.132Z,21.34
2017-04-26T01:05:41.808Z,21.34
2017-04-26T01:06:52.140Z,21.32
2017-04-26T01:08:02.062Z,21.28
2017-04-26T01:09:11.691Z,21.29
2017-04-26T01:10:21.566Z,21.31
2017-04-26T01:11:30.985Z,21.25
2017-04-26T01:12:41.256Z,21.32
2017-04-26T01:13:50.672Z,21.32
2017-04-26T01:15:00.403Z,21.28
2017-04-26T01:16:10.336Z,21.28
2017-04-26T01:17:20.318Z,21.28
2017-04-26T01:18:30.565Z,21.24
2017-04-26T01:19:39.953Z,21.25
2017-04-26T01:20:50.014Z,21.25
2017-04-26T01:21:59.841Z,21.19
2017-04-26T01:23:09.844Z,21.22
2017-04-26T01:24:19.473Z,21.24
2017-04-26T01:25:29.504Z,21.25
2017-04-26T01:26:39.149Z,21.25
2017-04-26T01:27:49.005Z,21.21
2017-04-26T01:28:58.110Z,21.25
2017-04-26T01:30:07.764Z,21.24
2017-04-26T01:31:16.844Z,21.21
2017-04-26T01:32:26.848Z,21.25
2017-04-26T01:33:36.367Z,21.24
2017-04-26T01:34:45.819Z,21.27
2017-04-26T01:35:55.865Z,21.29
2017-04-26T01:37:06.107Z,21.19
2017-04-26T01:38:16.014Z,21.19
2017-04-26T01:39:25.457Z,21.19
2017-04-26T01:40:35.356Z,21.22
2017-04-26T01:41:45.256Z,21.19
2017-04-26T01:42:55.465Z,21.21
2017-04-26T01:44:04.765Z,21.27
2017-04-26T01:45:14.684Z,21.21
2017-04-26T01:46:24.907Z,21.25
2017-04-26T01:47:35.121Z,21.21
2017-04-26T01:48:45.340Z,21.22
2017-04-26T01:49:54.952Z,21.21
2017-04-26T01:51:05.012Z,21.19
2017-04-26T01:52:14.613Z,21.21
2017-04-26T01:53:24.516Z,21.19
2017-04-26T01:54:34.736Z,21.22
2017-04-26T01:55:44.983Z,21.14
2017-04-26T01:56:55.025Z,21.19
2017-04-26T01:58:05.043Z,21.14
2017-04-26T01:59:14.723Z,21.22
2017-04-26T02:00:25.020Z,21.14
2017-04-26T02:01:34.726Z,21.19
2017-04-26T02:02:44.545Z,21.16
2017-04-26T02:03:54.355Z,21.17
2017-04-26T02:05:04.136Z,21.17
2017-04-26T02:06:14.174Z,21.12
2017-04-26T02:07:24.198Z,21.13
2017-04-26T02:08:34.355Z,21.1
2017-04-26T02:09:44.683Z,21.21
2017-04-26T02:10:54.106Z,21.14
2017-04-26T02:12:03.785Z,21.16
2017-04-26T02:13:13.384Z,21.14
2017-04-26T02:14:23.441Z,21.13
2017-04-26T02:15:33.669Z,21.14
2017-04-26T02:16:43.259Z,21.16
2017-04-26T02:17:53.485Z,21.13
2017-04-26T02:19:03.389Z,21.13
2017-04-26T02:20:13.706Z,21.13
2017-04-26T02:21:23.950Z,21.16
2017-04-26T02:22:34.179Z,21.16
2017-04-26T02:23:44.416Z,21.14
2017-04-26T02:24:54.363Z,21.1
2017-04-26T02:26:04.120Z,21.13
2017-04-26T02:27:14.100Z,21.1
2017-04-26T02:28:24.340Z,21.14
2017-04-26T02:29:34.250Z,21.1
2017-04-26T02:30:44.846Z,21.14
2017-04-26T02:31:55.218Z,21.12
2017-04-26T02:33:05.126Z,21.14
2017-04-26T02:34:15.355Z,21.12
2017-04-26T02:35:25.255Z,21.06
2017-04-26T02:36:35.159Z,21.14
2017-04-26T02:37:45.241Z,21.13
2017-04-26T02:38:54.843Z,21.16
2017-04-26T02:40:04.441Z,21.14
2017-04-26T02:41:14.642Z,21.13
2017-04-26T02:42:23.952Z,21.14
2017-04-26T02:43:33.405Z,21.09
2017-04-26T02:44:43.610Z,21.13
2017-04-26T02:45:53.892Z,21.14
2017-04-26T02:47:03.795Z,21.16
2017-04-26T02:48:13.708Z,21.16
2017-04-26T02:49:24.066Z,21.13
2017-04-26T02:50:34.271Z,21.01
2017-04-26T02:51:44.170Z,21.09
2017-04-26T02:52:54.377Z,21.06
2017-04-26T02:54:04.278Z,21.06
2017-04-26T02:55:13.865Z,21.06
2017-04-26T02:56:23.472Z,21.06
2017-04-26T02:57:32.758Z,21.12
2017-04-26T02:58:42.678Z,21.13
2017-04-26T02:59:52.882Z,21.03
2017-04-26T03:01:02.949Z,21.12
2017-04-26T03:02:12.539Z,21.07
2017-04-26T03:03:22.146Z,21.04
2017-04-26T03:04:32.057Z,21.09
2017-04-26T03:05:41.995Z,21.09
2017-04-26T03:06:52.054Z,21.03
2017-04-26T03:08:02.289Z,21.07
2017-04-26T03:09:12.198Z,21.09
2017-04-26T03:10:21.802Z,21.06
2017-04-26T03:11:32.017Z,21.13
2017-04-26T03:12:41.768Z,21.1
2017-04-26T03:13:52.051Z,21.09
2017-04-26T03:15:01.955Z,21.07
2017-04-26T03:16:11.863Z,21.03
2017-04-26T03:17:22.079Z,21.04
2017-04-26T03:18:31.933Z,21.03
2017-04-26T03:19:42.143Z,21.06
2017-04-26T03:20:52.355Z,21.06
2017-04-26T03:22:02.560Z,21.09
2017-04-26T03:23:12.158Z,21.06
2017-04-26T03:24:22.522Z,21.01
2017-04-26T03:25:32.427Z,21.03
2017-04-26T03:26:42.327Z,21.06
2017-04-26T03:27:52.532Z,21.03
2017-04-26T03:29:02.747Z,21.09
2017-04-26T03:30:12.811Z,21.03
2017-04-26T03:31:22.728Z,21.07
2017-04-26T03:32:32.949Z,21.1
2017-04-26T03:33:43.161Z,21.09
2017-04-26T03:34:53.375Z,21.04
2017-04-26T03:36:03.445Z,21.06
2017-04-26T03:37:13.661Z,21.01
2017-04-26T03:38:23.867Z,21.06
2017-04-26T03:39:34.099Z,21.07
2017-04-26T03:40:43.682Z,21.06
2017-04-26T03:41:54.045Z,21.04
2017-04-26T03:43:04.260Z,21.01
2017-04-26T03:44:13.572Z,21.06
2017-04-26T03:45:23.166Z,21.03
2017-04-26T03:46:33.369Z,21.03
2017-04-26T03:47:43.735Z,21.04
2017-04-26T03:48:53.036Z,21.03
2017-04-26T03:50:03.247Z,21.07
2017-04-26T03:51:12.847Z,21.01
2017-04-26T03:52:22.744Z,21.03
2017-04-26T03:53:32.813Z,21.01
2017-04-26T03:54:42.429Z,20.98
2017-04-26T03:55:52.344Z,20.98
2017-04-26T03:57:02.546Z,21.09
2017-04-26T03:58:12.755Z,20.99
2017-04-26T03:59:22.818Z,21.03
2017-04-26T04:00:32.738Z,21.04
2017-04-26T04:01:42.339Z,20.97
2017-04-26T04:02:52.548Z,20.99
2017-04-26T04:04:02.761Z,21.06
2017-04-26T04:05:12.770Z,20.95
2017-04-26T04:06:22.363Z,21.07
2017-04-26T04:07:32.563Z,20.98
2017-04-26T04:08:42.460Z,21.03
2017-04-26T04:09:52.672Z,21.03
2017-04-26T04:11:02.134Z,20.98
2017-04-26T04:12:11.436Z,20.95
2017-04-26T04:13:21.642Z,20.99
2017-04-26T04:14:31.247Z,21.04
2017-04-26T04:15:40.848Z,21.07
2017-04-26T04:16:50.601Z,20.98
2017-04-26T04:18:00.498Z,21.06
2017-04-26T04:19:10.119Z,21.06
2017-04-26T04:20:20.022Z,20.98
2017-04-26T04:21:29.621Z,21.06
2017-04-26T04:22:39.622Z,21.01
2017-04-26T04:23:48.611Z,20.97
2017-04-26T04:24:58.826Z,20.97
2017-04-26T04:26:08.130Z,21.03
2017-04-26T04:27:17.427Z,21.03
2017-04-26T04:28:27.734Z,21.06
2017-04-26T04:29:37.947Z,21.06
2017-04-26T04:30:47.859Z,20.97
2017-04-26T04:31:57.765Z,21.06
2017-04-26T04:33:07.673Z,21.06
2017-04-26T04:34:17.747Z,21.04
2017-04-26T04:35:27.656Z,21.03
2017-04-26T04:36:37.559Z,20.99
2017-04-26T04:37:47.485Z,20.99
2017-04-26T04:38:57.090Z,20.97
2017-04-26T04:40:07.444Z,21.03
2017-04-26T04:41:17.032Z,21.07
2017-04-26T04:42:27.239Z,20.97
2017-04-26T04:43:37.479Z,21.06
2017-04-26T04:44:47.454Z,21.09
2017-04-26T04:45:57.521Z,20.97
2017-04-26T04:47:07.117Z,21.07
2017-04-26T04:48:16.406Z,21.06
2017-04-26T04:49:26.012Z,20.98
2017-04-26T04:50:35.944Z,21.04
2017-04-26T04:51:45.998Z,21.06
2017-04-26T04:52:55.893Z,21.09
2017-04-26T04:54:05.502Z,21.12
2017-04-26T04:55:14.796Z,21.16
2017-04-26T04:56:24.694Z,21.14
2017-04-26T04:57:35.067Z,21.22
2017-04-26T04:58:45.285Z,21.25
2017-04-26T04:59:55.492Z,21.27
2017-04-26T05:01:05.084Z,21.42
2017-04-26T05:02:14.369Z,21.34
2017-04-26T05:03:23.838Z,21.47
2017-04-26T05:04:33.753Z,21.5
2017-04-26T05:05:43.979Z,21.59
2017-04-26T05:06:54.201Z,21.67
2017-04-26T05:08:03.810Z,21.75
2017-04-26T05:09:13.862Z,21.91
2017-04-26T05:10:23.454Z,21.86
2017-04-26T05:11:33.064Z,21.92
2017-04-26T05:12:43.276Z,21.99
2017-04-26T05:13:53.501Z,21.96
2017-04-26T05:15:03.270Z,22.03
2017-04-26T05:16:13.174Z,22.1
2017-04-26T05:17:23.126Z,22.17
2017-04-26T05:18:33.080Z,22.18
2017-04-26T05:19:42.690Z,22.22
2017-04-26T05:20:52.917Z,22.24
2017-04-26T05:22:03.152Z,22.4
2017-04-26T05:23:12.806Z,22.4
2017-04-26T05:24:23.022Z,22.51
2017-04-26T05:25:32.620Z,22.61
2017-04-26T05:26:42.398Z,22.72
2017-04-26T05:27:52.614Z,22.9
2017-04-26T05:29:02.824Z,23.05
2017-04-26T05:30:13.044Z,23.25
2017-04-26T05:31:22.359Z,23.43
2017-04-26T05:32:31.801Z,23.66
2017-04-26T05:33:41.715Z,23.88
2017-04-26T05:34:51.673Z,24.06
2017-04-26T05:36:01.573Z,24.34
2017-04-26T05:37:11.494Z,24.58
2017-04-26T05:38:21.277Z,24.85
2017-04-26T05:39:31.488Z,25.05
2017-04-26T05:40:41.686Z,25.25
2017-04-26T05:41:51.888Z,25.6
2017-04-26T05:43:01.799Z,25.72
2017-04-26T05:44:12.191Z,25.97
2017-04-26T05:45:22.425Z,26.13
2017-04-26T05:46:32.743Z,26.48
2017-04-26T05:47:42.392Z,26.67
2017-04-26T05:48:51.992Z,26.82
2017-04-26T05:50:02.367Z,26.97
2017-04-26T05:51:12.587Z,27.24
2017-04-26T05:52:21.581Z,27.34
2017-04-26T05:53:31.490Z,27.51
2017-04-26T05:54:41.704Z,27.77
2017-04-26T05:55:51.805Z,27.99
2017-04-26T05:57:02.061Z,28.19
2017-04-26T05:58:12.304Z,28.4
2017-04-26T05:59:21.897Z,28.62
2017-04-26T06:00:31.819Z,28.77
2017-04-26T06:01:42.173Z,29.04
2017-04-26T06:02:51.779Z,29.11
2017-04-26T06:04:01.716Z,29.23
2017-04-26T06:05:11.976Z,29.42
2017-04-26T06:06:22.199Z,29.68
2017-04-26T06:07:32.593Z,29.67
2017-04-26T06:08:42.831Z,29.86
2017-04-26T06:09:52.743Z,29.97
2017-04-26T06:11:02.343Z,29.89
2017-04-26T06:12:11.947Z,29.63
2017-04-26T06:13:22.317Z,29.31
2017-04-26T06:14:31.916Z,28.98
2017-04-26T06:15:41.531Z,28.59
2017-04-26T06:16:51.133Z,28.39
2017-04-26T06:18:01.049Z,28.02
2017-04-26T06:19:11.112Z,27.85
2017-04-26T06:20:21.330Z,27.63
2017-04-26T06:21:31.246Z,27.36
2017-04-26T06:22:41.158Z,27.27
2017-04-26T06:23:51.367Z,27.06
2017-04-26T06:25:01.528Z,26.82
2017-04-26T06:26:11.135Z,26.76
2017-04-26T06:27:21.043Z,26.66
2017-04-26T06:28:30.959Z,26.48
2017-04-26T06:29:40.877Z,26.33
2017-04-26T06:30:51.239Z,26.25
2017-04-26T06:32:00.825Z,26.1
2017-04-26T06:33:10.109Z,25.97
2017-04-26T06:34:20.337Z,25.95
2017-04-26T06:35:30.246Z,25.92
2017-04-26T06:36:40.304Z,25.79
2017-04-26T06:37:49.904Z,25.62
2017-04-26T06:39:00.134Z,25.57
2017-04-26T06:40:10.052Z,25.55
2017-04-26T06:41:19.657Z,25.4
2017-04-26T06:42:29.832Z,25.3
2017-04-26T06:43:39.458Z,25.24
2017-04-26T06:44:49.690Z,25.21
2017-04-26T06:45:59.927Z,25.25
2017-04-26T06:47:09.544Z,25.14
2017-04-26T06:48:19.615Z,25.15
2017-04-26T06:49:29.533Z,25.06
2017-04-26T06:50:39.769Z,25.08
2017-04-26T06:51:49.672Z,24.9
2017-04-26T06:52:59.592Z,24.98
2017-04-26T06:54:09.658Z,24.88
2017-04-26T06:55:19.272Z,24.95
2017-04-26T06:56:28.879Z,24.78
2017-04-26T06:57:38.815Z,24.76
2017-04-26T06:58:48.429Z,24.78
2017-04-26T06:59:58.184Z,24.71
2017-04-26T07:01:07.491Z,24.73
2017-04-26T07:02:17.407Z,24.57
2017-04-26T07:03:27.334Z,24.52
2017-04-26T07:04:37.252Z,24.52
2017-04-26T07:05:47.112Z,24.55
2017-04-26T07:06:57.024Z,24.46
2017-04-26T07:08:06.934Z,24.46
2017-04-26T07:09:17.165Z,24.4
2017-04-26T07:10:27.376Z,24.31
2017-04-26T07:11:37.444Z,24.31
2017-04-26T07:12:47.365Z,24.34
2017-04-26T07:13:57.278Z,24.28
2017-04-26T07:15:07.194Z,24.27
2017-04-26T07:16:16.807Z,24.46
2017-04-26T07:17:26.863Z,24.32
2017-04-26T07:18:36.763Z,24.32
2017-04-26T07:19:46.895Z,24.4
2017-04-26T07:20:56.188Z,24.39
2017-04-26T07:22:06.115Z,24.22
2017-04-26T07:23:16.161Z,24.3
2017-04-26T07:24:26.372Z,24.43
2017-04-26T07:25:36.041Z,24.58
2017-04-26T07:26:45.665Z,24.87
2017-04-26T07:27:55.610Z,25.14
2017-04-26T07:29:05.678Z,25.3
2017-04-26T07:30:15.583Z,25.33
2017-04-26T07:31:24.584Z,25.3
2017-04-26T07:32:34.796Z,25.24
2017-04-26T07:33:44.728Z,25.38
2017-04-26T07:34:54.791Z,25.7
2017-04-26T07:36:04.716Z,25.8
2017-04-26T07:37:14.638Z,25.91
2017-04-26T07:38:24.567Z,25.98
2017-04-26T07:39:34.800Z,25.94
2017-04-26T07:40:45.271Z,26.15
2017-04-26T07:41:55.504Z,26.44
2017-04-26T07:43:05.421Z,26.66
2017-04-26T07:44:15.026Z,26.6
2017-04-26T07:45:24.643Z,26.4
2017-04-26T07:46:34.529Z,26.37
2017-04-26T07:47:44.149Z,26.06
2017-04-26T07:48:54.075Z,26.02
2017-04-26T07:50:03.676Z,25.92
2017-04-26T07:51:13.913Z,25.76
2017-04-26T07:52:23.782Z,25.62
2017-04-26T07:53:33.711Z,25.52
2017-04-26T07:54:43.359Z,25.35
2017-04-26T07:55:52.991Z,25.25
2017-04-26T07:57:02.612Z,25.21
2017-04-26T07:58:12.784Z,25.1
2017-04-26T07:59:23.006Z,25.08
2017-04-26T08:00:32.611Z,24.96
2017-04-26T08:01:42.247Z,24.84
2017-04-26T08:02:52.181Z,24.77
2017-04-26T08:04:02.497Z,24.73
2017-04-26T08:05:12.421Z,24.68
2017-04-26T08:06:22.070Z,24.55
2017-04-26T08:07:32.044Z,24.5
2017-04-26T08:08:41.658Z,24.46
2017-04-26T08:09:51.686Z,24.58
2017-04-26T08:11:01.602Z,24.76
2017-04-26T08:12:10.909Z,24.78
2017-04-26T08:13:21.120Z,25.32
2017-04-26T08:14:30.790Z,25.54
2017-04-26T08:15:41.109Z,25.75
2017-04-26T08:16:51.334Z,25.83
2017-04-26T08:18:01.246Z,25.92
2017-04-26T08:19:11.505Z,26.05
2017-04-26T08:20:21.412Z,25.95
2017-04-26T08:21:31.742Z,25.95
2017-04-26T08:22:41.962Z,25.98
2017-04-26T08:23:52.176Z,26.05
2017-04-26T08:25:02.400Z,26.39
2017-04-26T08:26:12.014Z,26.81
2017-04-26T08:27:21.768Z,27.09
2017-04-26T08:28:31.681Z,27.36
2017-04-26T08:29:40.974Z,27.37
2017-04-26T08:30:50.581Z,27.37
2017-04-26T08:32:00.201Z,27.24
2017-04-26T08:33:09.968Z,27.03
2017-04-26T08:34:20.195Z,26.88
2017-04-26T08:35:30.113Z,26.6
2017-04-26T08:36:40.049Z,26.44
2017-04-26T08:37:50.008Z,26.26
2017-04-26T08:39:00.076Z,26.07
2017-04-26T08:40:09.698Z,26.1
2017-04-26T08:41:19.621Z,25.94
2017-04-26T08:42:29.539Z,25.87
2017-04-26T08:43:39.762Z,25.69
2017-04-26T08:44:49.822Z,25.62
2017-04-26T08:45:59.436Z,25.57
2017-04-26T08:47:09.361Z,25.47
2017-04-26T08:48:19.590Z,25.39
2017-04-26T08:49:29.846Z,25.23
2017-04-26T08:50:39.918Z,25.23
2017-04-26T08:51:49.845Z,25.17
2017-04-26T08:52:59.758Z,25.08
2017-04-26T08:54:09.971Z,24.99
2017-04-26T08:55:19.599Z,24.95
2017-04-26T08:56:29.679Z,24.91
2017-04-26T08:57:39.293Z,24.8
2017-04-26T08:58:49.218Z,24.83
2017-04-26T08:59:58.520Z,24.78
2017-04-26T09:01:08.126Z,24.81
2017-04-26T09:02:18.855Z,24.78
2017-04-26T09:03:28.784Z,24.69
2017-04-26T09:04:38.693Z,24.69
2017-04-26T09:05:48.607Z,24.68
2017-04-26T09:06:58.541Z,24.53
2017-04-26T09:08:08.611Z,24.53
2017-04-26T09:09:18.535Z,24.5
2017-04-26T09:10:28.775Z,24.45
2017-04-26T09:11:39.001Z,24.28
2017-04-26T09:12:48.907Z,24.3
2017-04-26T09:13:58.040Z,24.37
2017-04-26T09:15:08.245Z,24.25
2017-04-26T09:16:17.842Z,24.25
2017-04-26T09:17:27.447Z,24.3
2017-04-26T09:18:37.369Z,24.31
2017-04-26T09:19:47.748Z,24.22
2017-04-26T09:20:57.677Z,24.27
2017-04-26T09:22:07.617Z,24.18
2017-04-26T09:23:17.246Z,24.12
2017-04-26T09:24:27.170Z,24.15
2017-04-26T09:25:36.664Z,24.21
2017-04-26T09:26:46.577Z,24.02
2017-04-26T09:27:56.494Z,24.06
2017-04-26T09:29:06.429Z,24.03
2017-04-26T09:30:16.032Z,24.06
2017-04-26T09:31:26.418Z,24.08
2017-04-26T09:32:35.734Z,24.18
2017-04-26T09:33:45.969Z,24.05
2017-04-26T09:34:56.201Z,24.09
2017-04-26T09:36:05.835Z,24.03
2017-04-26T09:37:15.288Z,24.08
2017-04-26T09:38:25.503Z,24.06
2017-04-26T09:39:35.435Z,23.95
2017-04-26T09:40:45.368Z,23.93
2017-04-26T09:41:55.960Z,23.97
2017-04-26T09:43:06.340Z,23.83
2017-04-26T09:44:16.570Z,23.72
2017-04-26T09:45:26.496Z,23.84
2017-04-26T09:46:35.797Z,23.72
2017-04-26T09:47:45.417Z,23.65
2017-04-26T09:48:55.470Z,23.66
2017-04-26T09:50:05.388Z,23.63
2017-04-26T09:51:15.632Z,23.65
2017-04-26T09:52:25.273Z,23.66
2017-04-26T09:53:35.510Z,23.57
2017-04-26T09:54:45.908Z,23.55
2017-04-26T09:55:55.545Z,23.55
2017-04-26T09:57:05.780Z,23.5
2017-04-26T09:58:15.711Z,23.53
2017-04-26T09:59:25.626Z,23.43
2017-04-26T10:00:35.693Z,23.47
2017-04-26T10:01:45.914Z,23.42
2017-04-26T10:02:55.831Z,23.43
2017-04-26T10:04:05.147Z,23.36
2017-04-26T10:05:14.766Z,23.4
2017-04-26T10:06:25.467Z,23.31
2017-04-26T10:07:35.376Z,23.38
2017-04-26T10:08:44.975Z,23.36
2017-04-26T10:09:55.244Z,23.36
2017-04-26T10:11:05.179Z,23.35
2017-04-26T10:12:14.943Z,23.39
2017-04-26T10:13:24.870Z,23.39
2017-04-26T10:15:05.652Z,23.38
2017-04-26T10:16:15.264Z,23.39
2017-04-26T10:17:25.279Z,23.4
2017-04-26T10:18:34.903Z,23.33
2017-04-26T10:19:45.134Z,23.4
2017-04-26T10:20:54.790Z,23.39
2017-04-26T10:22:04.712Z,23.39
2017-04-26T10:23:14.428Z,23.4
2017-04-26T10:24:24.690Z,23.47
2017-04-26T10:25:34.903Z,23.43
2017-04-26T10:26:43.922Z,23.43
2017-04-26T10:28:09.258Z,23.42
2017-04-26T10:30:04.476Z,23.43
2017-04-26T10:31:14.085Z,23.48
2017-04-26T10:32:24.013Z,23.47
2017-04-26T10:33:34.037Z,23.42
2017-04-26T10:34:44.463Z,23.47
2017-04-26T10:35:55.103Z,23.43
2017-04-26T10:37:04.730Z,23.38
2017-04-26T10:38:14.956Z,23.42
2017-04-26T10:39:24.770Z,23.35
2017-04-26T10:40:34.704Z,23.38
2017-04-26T10:41:44.659Z,23.35
2017-04-26T10:42:54.290Z,23.39
2017-04-26T10:44:03.915Z,23.28
2017-04-26T10:45:14.446Z,23.38
2017-04-26T10:46:24.078Z,23.27
2017-04-26T10:47:34.008Z,23.31
2017-04-26T10:48:44.260Z,23.28
2017-04-26T10:49:54.171Z,23.22
2017-04-26T10:51:03.614Z,23.2
2017-04-26T10:52:13.832Z,23.16
2017-04-26T10:53:23.744Z,23.25
2017-04-26T10:54:33.952Z,23.25
2017-04-26T10:55:43.568Z,23.27
2017-04-26T10:56:53.631Z,23.15
2017-04-26T10:58:03.864Z,23.25
2017-04-26T10:59:13.485Z,23.2
2017-04-26T11:00:23.724Z,23.23
2017-04-26T11:01:33.683Z,23.19
2017-04-26T11:02:43.738Z,23.25
2017-04-26T11:03:53.964Z,23.25
2017-04-26T11:05:03.891Z,23.23
2017-04-26T11:06:13.496Z,23.23
2017-04-26T11:07:23.093Z,23.22
2017-04-26T11:08:33.463Z,23.42
2017-04-26T11:09:43.071Z,23.42
2017-04-26T11:10:52.695Z,23.38
2017-04-26T11:12:03.314Z,23.39
2017-04-26T11:13:12.950Z,23.39
2017-04-26T11:14:22.413Z,23.35
2017-04-26T11:15:32.645Z,23.35
2017-04-26T11:16:42.258Z,23.4
2017-04-26T11:17:52.170Z,23.35
2017-04-26T11:19:02.404Z,23.36
2017-04-26T11:20:12.159Z,23.36
2017-04-26T11:21:22.115Z,23.4
2017-04-26T11:22:32.347Z,23.35
2017-04-26T11:23:41.654Z,23.35
2017-04-26T11:24:51.881Z,23.35
2017-04-26T11:26:01.935Z,23.35
2017-04-26T11:27:11.551Z,23.35
2017-04-26T11:28:21.452Z,23.38
2017-04-26T11:29:31.085Z,23.35
2017-04-26T11:30:40.685Z,23.39
2017-04-26T11:31:51.063Z,23.33
2017-04-26T11:33:00.668Z,23.39
2017-04-26T11:34:10.595Z,23.38
2017-04-26T11:35:20.204Z,23.36
2017-04-26T11:36:29.835Z,23.32
2017-04-26T11:37:40.214Z,23.31
2017-04-26T11:38:50.127Z,23.36
2017-04-26T11:40:00.051Z,23.38
2017-04-26T11:41:09.998Z,23.38
2017-04-26T11:42:19.921Z,23.35
2017-04-26T11:43:29.779Z,23.36
2017-04-26T11:44:40.021Z,23.4
2017-04-26T11:45:50.016Z,23.36
2017-04-26T11:46:59.954Z,23.27
2017-04-26T11:48:10.167Z,23.38
2017-04-26T11:49:19.772Z,23.22
2017-04-26T11:50:29.683Z,23.23
2017-04-26T11:51:39.611Z,23.27
2017-04-26T11:52:49.829Z,23.27
2017-04-26T11:53:59.455Z,23.31
2017-04-26T11:55:09.524Z,23.28
2017-04-26T11:56:19.431Z,23.27
2017-04-26T11:57:29.643Z,23.32
2017-04-26T11:58:39.564Z,23.2
2017-04-26T11:59:48.875Z,23.27
2017-04-26T12:00:58.027Z,23.23
2017-04-26T12:02:07.953Z,23.31
2017-04-26T12:03:18.165Z,23.31
2017-04-26T12:04:28.076Z,23.22
2017-04-26T12:05:37.685Z,23.23
2017-04-26T12:06:47.725Z,23.23
2017-04-26T12:07:57.329Z,23.25
2017-04-26T12:09:07.566Z,23.16
2017-04-26T12:10:17.176Z,23.28
2017-04-26T12:11:26.798Z,23.13
2017-04-26T12:12:37.116Z,23.25
2017-04-26T12:13:46.718Z,23.23
2017-04-26T12:14:56.936Z,23.17
2017-04-26T12:16:06.541Z,23.12
2017-04-26T12:17:16.758Z,23.17
2017-04-26T12:18:26.461Z,23.17
2017-04-26T12:19:36.367Z,23.17
2017-04-26T12:20:46.265Z,23.09
2017-04-26T12:21:55.875Z,23.22
2017-04-26T12:23:05.796Z,23.15
2017-04-26T12:24:15.193Z,23.15
2017-04-26T12:25:25.140Z,23.13
2017-04-26T12:26:35.371Z,23.13
2017-04-26T12:27:45.593Z,23.13
2017-04-26T12:28:55.801Z,23.19
2017-04-26T12:30:05.514Z,23.22
2017-04-26T12:31:15.439Z,23.19
2017-04-26T12:32:25.333Z,23.17
2017-04-26T12:33:35.551Z,23.2
2017-04-26T12:34:45.151Z,23.22
2017-04-26T12:35:55.159Z,23.15
2017-04-26T12:37:05.086Z,23.22
2017-04-26T12:38:15.008Z,23.25
2017-04-26T12:39:24.916Z,23.28
2017-04-26T12:40:35.127Z,23.23
2017-04-26T12:41:45.185Z,23.23
2017-04-26T12:42:55.091Z,23.31
2017-04-26T12:44:05.003Z,23.17
2017-04-26T12:45:15.235Z,23.31
2017-04-26T12:46:24.531Z,23.28
2017-04-26T12:47:34.290Z,23.27
2017-04-26T12:48:44.205Z,23.23
2017-04-26T12:49:54.425Z,23.23
2017-04-26T12:51:04.326Z,23.17
2017-04-26T12:52:13.935Z,23.23
2017-04-26T12:53:23.733Z,23.16
2017-04-26T12:54:33.945Z,23.19
2017-04-26T12:55:43.562Z,23.17
2017-04-26T12:56:53.169Z,23.31
2017-04-26T12:58:03.085Z,23.22
2017-04-26T12:59:12.839Z,23.25
2017-04-26T13:00:23.071Z,23.22
2017-04-26T13:01:33.309Z,23.17
2017-04-26T13:02:42.908Z,23.16
2017-04-26T13:03:52.820Z,23.13
2017-04-26T13:05:02.610Z,23.17
2017-04-26T13:06:12.839Z,23.16
2017-04-26T13:07:23.056Z,23.13
2017-04-26T13:08:32.974Z,23.13
2017-04-26T13:09:43.196Z,23.15
2017-04-26T13:10:53.265Z,23.04
2017-04-26T13:12:01.964Z,23.15
2017-04-26T13:13:11.573Z,23.1
2017-04-26T13:14:21.178Z,23.07
2017-04-26T13:15:31.088Z,23.05
2017-04-26T13:16:40.851Z,23.04
2017-04-26T13:17:51.085Z,23.05
2017-04-26T13:19:00.698Z,23.07
2017-04-26T13:20:09.994Z,23.05
2017-04-26T13:21:19.307Z,23.09
2017-04-26T13:22:29.075Z,23.07
2017-04-26T13:23:38.379Z,23.05
2017-04-26T13:24:48.292Z,23.01
2017-04-26T13:25:57.906Z,23.07
2017-04-26T13:27:08.138Z,23.05
2017-04-26T13:28:18.257Z,23.07
2017-04-26T13:29:28.200Z,23.07
2017-04-26T13:30:37.494Z,23.13
2017-04-26T13:31:47.723Z,23.05
2017-04-26T13:32:57.630Z,23.12
2017-04-26T13:34:07.694Z,23.05
2017-04-26T13:35:17.613Z,22.98
2017-04-26T13:36:27.240Z,23.02
2017-04-26T13:37:37.469Z,23.02
2017-04-26T13:38:47.102Z,23.02
2017-04-26T13:39:57.184Z,23.04
2017-04-26T13:41:06.806Z,23.01
2017-04-26T13:42:16.714Z,23.02
2017-04-26T13:43:26.636Z,23.02
2017-04-26T13:44:36.595Z,23.01
2017-04-26T13:45:46.767Z,23.04
2017-04-26T13:46:56.697Z,22.98
2017-04-26T13:48:06.326Z,22.94
2017-04-26T13:49:15.618Z,22.95
2017-04-26T13:50:25.839Z,22.9
2017-04-26T13:51:35.609Z,22.97
2017-04-26T13:52:45.553Z,22.92
2017-04-26T13:53:55.773Z,22.95
2017-04-26T13:55:05.683Z,22.91
2017-04-26T13:56:15.587Z,22.92
2017-04-26T13:57:25.662Z,22.92
2017-04-26T13:58:35.598Z,22.86
2017-04-26T13:59:45.503Z,22.92
2017-04-26T14:00:55.413Z,22.85
2017-04-26T14:02:05.651Z,22.85
2017-04-26T14:03:15.749Z,22.91
2017-04-26T14:04:25.361Z,22.91
2017-04-26T14:05:34.676Z,22.91
2017-04-26T14:06:44.600Z,22.86
2017-04-26T14:07:54.207Z,22.86
2017-04-26T14:09:03.923Z,22.85
2017-04-26T14:10:14.157Z,22.86
2017-04-26T14:11:24.081Z,22.85
2017-04-26T14:12:33.374Z,22.85
2017-04-26T14:13:42.983Z,22.9
2017-04-26T14:14:52.738Z,22.9
2017-04-26T14:16:02.698Z,22.86
2017-04-26T14:17:12.925Z,22.82
2017-04-26T14:18:22.836Z,22.83
2017-04-26T14:19:32.760Z,22.85
2017-04-26T14:20:42.797Z,22.85
2017-04-26T14:21:52.740Z,22.86
2017-04-26T14:23:02.349Z,22.86
2017-04-26T14:24:12.586Z,22.85
2017-04-26T14:25:21.615Z,22.91
2017-04-26T14:26:31.619Z,22.88
2017-04-26T14:27:41.854Z,22.88
2017-04-26T14:28:52.081Z,22.91
2017-04-26T14:30:01.694Z,22.88
2017-04-26T14:31:11.930Z,22.92
2017-04-26T14:32:21.922Z,22.98
2017-04-26T14:33:31.531Z,23
2017-04-26T14:34:41.439Z,23.01
2017-04-26T14:35:51.654Z,23.02
2017-04-26T14:37:01.884Z,23.01
2017-04-26T14:38:12.274Z,23.01
2017-04-26T14:39:21.961Z,23.01
2017-04-26T14:40:32.189Z,23.01
2017-04-26T14:41:42.110Z,23.01
2017-04-26T14:42:51.716Z,23.1
2017-04-26T14:44:01.464Z,23.1
2017-04-26T14:45:11.677Z,23.09
2017-04-26T14:46:22.270Z,23.09
2017-04-26T14:47:32.186Z,23.07
2017-04-26T14:48:42.121Z,23.07
2017-04-26T14:49:52.543Z,23.09
2017-04-26T14:51:02.462Z,23.17
2017-04-26T14:52:12.388Z,23.16
2017-04-26T14:53:22.297Z,23.16
2017-04-26T14:54:32.519Z,23.13
2017-04-26T14:55:42.594Z,23.16
2017-04-26T14:56:52.809Z,23.17
2017-04-26T14:58:03.028Z,23.16
2017-04-26T14:59:12.936Z,23.19
2017-04-26T15:00:22.540Z,23.19
2017-04-26T15:01:32.616Z,23.07
2017-04-26T15:02:42.863Z,23.07
2017-04-26T15:03:53.270Z,23.15